Time;durP1;ratioP1;P1;durP2;ratioP2;P2;SDS_P1;SDS_P2;PMS_P1;PMS_P2;Temp;Humidity;BMP_temperature;BMP_pressure;BME280_temperature;BME280_humidity;BME280_pressure;Samples;Min_cycle;Max_cycle;Signal;HPM_P1;HPM_P2
2023/07/11 00:01:19;;;;;;;;;;;12.00;99.90;;;;;;5094330;28;20006;-67
2023/07/11 00:03:46;;;;;;;;;;;12.10;99.90;;;;;;5094344;28;19915;-69
2023/07/11 00:06:15;;;;;;;;;;;12.30;99.90;;;;;;5094126;28;19916;-68
2023/07/11 00:08:41;;;;;;;;;;;12.30;99.90;;;;;;5094069;28;19908;-69
2023/07/11 00:11:09;;;;;;;;;;;12.40;99.80;;;;;;5093920;28;19912;-69
2023/07/11 00:13:36;;;;;;;;;;;12.50;99.70;;;;;;5093842;28;19912;-68
2023/07/11 00:16:05;;;;;;;;;;;12.50;99.10;;;;;;5094018;28;19908;-66
2023/07/11 00:18:31;;;;;;;;;;;12.60;98.80;;;;;;5093996;28;19977;-67
2023/07/11 00:20:58;;;;;;;;;;;12.70;99.00;;;;;;5094013;28;19908;-68
2023/07/11 00:23:25;;;;;;;;;;;12.70;98.50;;;;;;5093761;28;19919;-67
2023/07/11 00:25:52;;;;;;;;;;;12.90;98.70;;;;;;5093883;28;19955;-68
2023/07/11 00:28:19;;;;;;;;;;;12.90;98.60;;;;;;5093920;28;20361;-67
2023/07/11 00:30:47;;;;;;;;;;;13.00;98.20;;;;;;5093436;28;19908;-67
2023/07/11 00:33:13;;;;;;;;;;;13.10;97.80;;;;;;5093599;28;19915;-66
2023/07/11 00:35:43;;;;;;;;;;;13.20;97.50;;;;;;5093720;28;19931;-67
2023/07/11 00:38:10;;;;;;;;;;;13.30;97.30;;;;;;5093224;28;19997;-67
2023/07/11 00:40:40;;;;;;;;;;;13.40;97.10;;;;;;5093122;28;19943;-64
2023/07/11 00:43:10;;;;;;;;;;;13.50;97.40;;;;;;5093561;28;19915;-67
2023/07/11 00:45:54;;;;;;;;;;;13.50;97.10;;;;;;5093146;28;19927;-67
2023/07/11 00:48:22;;;;;;;;;;;13.60;96.70;;;;;;5093606;28;19943;-69
2023/07/11 00:50:50;;;;;;;;;;;13.70;96.70;;;;;;5093210;28;19908;-69
2023/07/11 00:53:17;;;;;;;;;;;13.80;96.50;;;;;;5093600;28;20041;-70
2023/07/11 00:55:44;;;;;;;;;;;13.80;96.20;;;;;;5093337;28;19920;-70
2023/07/11 00:58:11;;;;;;;;;;;13.90;96.40;;;;;;5093136;28;19915;-67
2023/07/11 01:00:38;;;;;;;;;;;13.90;96.10;;;;;;5093177;28;19915;-67
2023/07/11 01:03:05;;;;;;;;;;;14.00;95.70;;;;;;5093137;28;19912;-67
2023/07/11 01:05:32;;;;;;;;;;;14.10;96.10;;;;;;5093035;28;19909;-68
2023/07/11 01:07:58;;;;;;;;;;;14.20;95.50;;;;;;5093220;28;19912;-68
2023/07/11 01:10:25;;;;;;;;;;;14.30;95.70;;;;;;5092919;28;19912;-68
2023/07/11 01:12:57;;;;;;;;;;;14.40;95.10;;;;;;5074695;28;20288;-69
2023/07/11 01:15:24;;;;;;;;;;;14.40;95.10;;;;;;5092968;28;19914;-68
2023/07/11 01:17:50;;;;;;;;;;;14.50;95.10;;;;;;5092774;28;19908;-69
2023/07/11 01:20:17;;;;;;;;;;;14.70;95.20;;;;;;5092534;28;19959;-69
2023/07/11 01:22:44;;;;;;;;;;;14.80;94.50;;;;;;5092739;28;19915;-68
2023/07/11 01:25:12;;;;;;;;;;;14.80;94.10;;;;;;5092977;28;19912;-67
2023/07/11 01:27:40;;;;;;;;;;;14.90;94.20;;;;;;5092466;28;20342;-67
2023/07/11 01:30:07;;;;;;;;;;;14.90;93.80;;;;;;5092714;28;19908;-69
2023/07/11 01:32:34;;;;;;;;;;;15.00;93.90;;;;;;5092687;28;19908;-71
2023/07/11 01:35:01;;;;;;;;;;;15.10;93.60;;;;;;5092847;28;19995;-69
2023/07/11 01:37:28;;;;;;;;;;;15.20;93.40;;;;;;5092769;28;19916;-69
2023/07/11 01:39:54;;;;;;;;;;;15.40;93.70;;;;;;5092616;28;19970;-68
2023/07/11 01:42:21;;;;;;;;;;;15.40;93.20;;;;;;5092637;28;19916;-68
2023/07/11 01:44:48;;;;;;;;;;;15.40;92.90;;;;;;5092453;28;20058;-67
2023/07/11 01:47:15;;;;;;;;;;;15.50;93.50;;;;;;5092527;28;19923;-67
2023/07/11 01:49:42;;;;;;;;;;;15.70;93.20;;;;;;5092693;28;20288;-67
2023/07/11 01:52:13;;;;;;;;;;;15.80;92.70;;;;;;5094892;28;19912;-70
2023/07/11 01:54:40;;;;;;;;;;;15.90;92.80;;;;;;5096465;28;20257;-69
2023/07/11 01:57:10;;;;;;;;;;;16.00;92.50;;;;;;5096686;28;19908;-68
2023/07/11 01:59:37;;;;;;;;;;;16.20;92.20;;;;;;5096283;28;19908;-67
2023/07/11 02:02:04;;;;;;;;;;;16.30;91.90;;;;;;5096487;28;19908;-67
2023/07/11 02:04:31;;;;;;;;;;;16.40;91.60;;;;;;5096530;28;20401;-68
2023/07/11 02:06:58;;;;;;;;;;;16.50;92.10;;;;;;5096109;28;19923;-66
2023/07/11 02:09:25;;;;;;;;;;;16.60;91.70;;;;;;5096459;28;19908;-68
2023/07/11 02:11:51;;;;;;;;;;;16.60;91.20;;;;;;5096256;28;19909;-68
2023/07/11 02:14:19;;;;;;;;;;;16.60;91.50;;;;;;5096344;28;20003;-68
2023/07/11 02:16:46;;;;;;;;;;;16.60;91.40;;;;;;5096249;28;19950;-67
2023/07/11 02:19:14;;;;;;;;;;;16.60;91.20;;;;;;5095873;28;19908;-67
2023/07/11 02:21:41;;;;;;;;;;;16.70;91.20;;;;;;5096089;28;20280;-67
2023/07/11 02:24:09;;;;;;;;;;;16.80;91.30;;;;;;5096205;28;19990;-67
2023/07/11 02:26:36;;;;;;;;;;;16.70;91.30;;;;;;5095952;28;19920;-67
2023/07/11 02:29:03;;;;;;;;;;;16.70;90.90;;;;;;5095858;28;19913;-67
2023/07/11 02:31:31;;;;;;;;;;;16.70;90.70;;;;;;5096003;28;19931;-67
2023/07/11 02:33:57;;;;;;;;;;;16.70;91.00;;;;;;5095958;28;19915;-67
2023/07/11 02:36:24;;;;;;;;;;;16.70;90.90;;;;;;5095955;28;20391;-65
2023/07/11 02:38:51;;;;;;;;;;;16.80;90.90;;;;;;5095619;28;20279;-64
2023/07/11 02:41:18;;;;;;;;;;;16.90;90.90;;;;;;5095670;28;20387;-65
2023/07/11 02:43:46;;;;;;;;;;;17.20;90.90;;;;;;5095772;28;19908;-67
2023/07/11 02:46:14;;;;;;;;;;;17.60;90.10;;;;;;5095175;28;19996;-64
2023/07/11 02:48:41;;;;;;;;;;;17.90;89.10;;;;;;5095645;28;19908;-68
2023/07/11 02:51:08;;;;;;;;;;;18.30;88.60;;;;;;5095445;28;19961;-68
2023/07/11 02:53:34;;;;;;;;;;;18.50;87.80;;;;;;5095491;28;19991;-68
2023/07/11 02:56:01;;;;;;;;;;;18.70;86.80;;;;;;5095643;28;19912;-68
2023/07/11 02:58:28;;;;;;;;;;;19.00;85.90;;;;;;5095439;28;20400;-68
2023/07/11 03:00:55;;;;;;;;;;;19.70;84.00;;;;;;5095244;28;19915;-68
2023/07/11 03:03:22;;;;;;;;;;;20.40;84.00;;;;;;5095478;28;19931;-68
2023/07/11 03:05:50;;;;;;;;;;;20.60;81.50;;;;;;5095233;28;20330;-69
2023/07/11 03:08:17;;;;;;;;;;;20.60;81.60;;;;;;5095201;28;19908;-68
2023/07/11 03:10:44;;;;;;;;;;;20.50;81.50;;;;;;5095301;28;19943;-69
2023/07/11 03:13:10;;;;;;;;;;;20.70;80.00;;;;;;5095143;28;19953;-67
2023/07/11 03:15:38;;;;;;;;;;;21.30;80.00;;;;;;5095220;28;19955;-68
2023/07/11 03:18:05;;;;;;;;;;;22.20;77.50;;;;;;5095104;28;20007;-69
2023/07/11 03:20:42;;;;;;;;;;;22.60;74.70;;;;;;5094894;28;19908;-69
2023/07/11 03:23:09;;;;;;;;;;;22.70;74.10;;;;;;5095023;28;19920;-68
2023/07/11 03:25:36;;;;;;;;;;;22.60;73.90;;;;;;5094924;28;20294;-67
2023/07/11 03:28:03;;;;;;;;;;;22.80;73.80;;;;;;5094976;28;19908;-67
2023/07/11 03:30:33;;;;;;;;;;;23.10;72.80;;;;;;5094821;28;19908;-70
2023/07/11 03:33:00;;;;;;;;;;;23.30;72.10;;;;;;5094581;28;19916;-68
2023/07/11 03:35:27;;;;;;;;;;;23.60;71.10;;;;;;5094529;28;20379;-67
2023/07/11 03:37:54;;;;;;;;;;;23.60;70.50;;;;;;5094810;28;20383;-69
2023/07/11 03:40:20;;;;;;;;;;;23.70;69.70;;;;;;5094683;28;20295;-69
2023/07/11 03:42:47;;;;;;;;;;;23.90;69.90;;;;;;5094448;28;19915;-69
2023/07/11 03:45:14;;;;;;;;;;;25.00;68.20;;;;;;5094378;28;19966;-67
2023/07/11 03:47:41;;;;;;;;;;;26.60;64.80;;;;;;5094583;28;19923;-69
2023/07/11 03:50:08;;;;;;;;;;;27.70;63.10;;;;;;5094478;28;19912;-71
2023/07/11 03:52:34;;;;;;;;;;;29.20;61.70;;;;;;5094491;28;19912;-69
2023/07/11 03:55:01;;;;;;;;;;;30.50;59.00;;;;;;5094377;28;20388;-69
2023/07/11 03:57:28;;;;;;;;;;;31.40;57.80;;;;;;5094252;28;19914;-69
2023/07/11 03:59:55;;;;;;;;;;;31.90;55.10;;;;;;5094331;28;19961;-69
2023/07/11 04:02:21;;;;;;;;;;;32.00;54.10;;;;;;5094302;28;20360;-69
2023/07/11 04:04:48;;;;;;;;;;;31.70;52.70;;;;;;5093921;28;20007;-67
2023/07/11 04:07:14;;;;;;;;;;;31.20;53.60;;;;;;5094219;28;20081;-69
2023/07/11 04:09:41;;;;;;;;;;;31.30;53.30;;;;;;5094075;28;19960;-70
2023/07/11 04:12:08;;;;;;;;;;;31.60;52.70;;;;;;5094102;28;20511;-71
2023/07/11 04:14:35;;;;;;;;;;;31.70;52.90;;;;;;5093492;28;19912;-70
2023/07/11 04:17:02;;;;;;;;;;;31.30;52.60;;;;;;5093875;28;19908;-71
2023/07/11 04:19:28;;;;;;;;;;;30.40;52.90;;;;;;5093778;28;19908;-69
2023/07/11 04:21:55;;;;;;;;;;;29.10;54.10;;;;;;5093801;28;19909;-67
2023/07/11 04:24:22;;;;;;;;;;;27.60;55.20;;;;;;5093688;28;20018;-68
2023/07/11 04:26:48;;;;;;;;;;;25.80;57.90;;;;;;5093812;28;20331;-68
2023/07/11 04:29:15;;;;;;;;;;;24.60;59.30;;;;;;5093842;28;19916;-69
2023/07/11 04:31:41;;;;;;;;;;;23.70;60.30;;;;;;5093642;28;19908;-71
2023/07/11 04:34:08;;;;;;;;;;;22.80;61.60;;;;;;5093588;28;19912;-69
2023/07/11 04:36:35;;;;;;;;;;;22.20;63.30;;;;;;5093589;28;19912;-69
2023/07/11 04:39:03;;;;;;;;;;;21.60;64.50;;;;;;5093585;28;19912;-69
2023/07/11 04:41:29;;;;;;;;;;;21.20;65.60;;;;;;5093273;28;19954;-69
2023/07/11 04:43:56;;;;;;;;;;;20.80;66.40;;;;;;5093320;28;19908;-69
2023/07/11 04:46:23;;;;;;;;;;;20.60;67.10;;;;;;5093249;28;19920;-68
2023/07/11 04:48:49;;;;;;;;;;;20.50;67.90;;;;;;5093544;28;19961;-67
2023/07/11 04:51:16;;;;;;;;;;;20.20;68.30;;;;;;5093513;28;19919;-69
2023/07/11 04:53:43;;;;;;;;;;;20.10;68.70;;;;;;5093269;28;19919;-68
2023/07/11 04:56:10;;;;;;;;;;;20.10;68.80;;;;;;5093105;28;19908;-66
2023/07/11 04:58:37;;;;;;;;;;;20.10;68.80;;;;;;5093214;28;19991;-69
2023/07/11 05:01:05;;;;;;;;;;;20.20;69.40;;;;;;5093025;28;19963;-69
2023/07/11 05:03:32;;;;;;;;;;;20.30;69.80;;;;;;5093031;28;19909;-71
2023/07/11 05:05:59;;;;;;;;;;;20.30;70.40;;;;;;5093080;28;19912;-69
2023/07/11 05:08:26;;;;;;;;;;;20.40;69.90;;;;;;5093177;28;19923;-69
2023/07/11 05:10:54;;;;;;;;;;;20.40;69.70;;;;;;5093089;28;19908;-68
2023/07/11 05:13:20;;;;;;;;;;;20.30;68.90;;;;;;5092988;28;19915;-67
2023/07/11 05:15:47;;;;;;;;;;;20.40;68.90;;;;;;5093306;28;19963;-68
2023/07/11 05:18:14;;;;;;;;;;;20.80;69.30;;;;;;5092963;28;19908;-66
2023/07/11 05:20:40;;;;;;;;;;;21.10;67.00;;;;;;5092933;28;19908;-64
2023/07/11 05:23:07;;;;;;;;;;;21.30;66.90;;;;;;5092976;28;19954;-67
2023/07/11 05:25:36;;;;;;;;;;;21.20;67.20;;;;;;5092019;28;19908;-63
2023/07/11 05:28:02;;;;;;;;;;;21.00;66.60;;;;;;5092497;28;19908;-65
2023/07/11 05:30:29;;;;;;;;;;;20.80;67.40;;;;;;5092767;28;19977;-65
2023/07/11 05:32:55;;;;;;;;;;;20.70;68.20;;;;;;5092785;28;19912;-68
2023/07/11 05:35:22;;;;;;;;;;;20.60;67.50;;;;;;5092920;28;19999;-68
2023/07/11 05:37:49;;;;;;;;;;;20.60;67.30;;;;;;5092813;28;19908;-69
2023/07/11 05:40:15;;;;;;;;;;;20.80;67.20;;;;;;5092885;28;19973;-69
2023/07/11 05:42:42;;;;;;;;;;;21.30;66.90;;;;;;5092884;28;19962;-68
2023/07/11 05:45:09;;;;;;;;;;;21.80;65.40;;;;;;5092456;28;19916;-67
2023/07/11 05:47:35;;;;;;;;;;;22.30;66.40;;;;;;5092883;28;19927;-69
2023/07/11 05:50:02;;;;;;;;;;;22.60;64.70;;;;;;5092631;28;19968;-69
2023/07/11 05:52:29;;;;;;;;;;;22.70;65.20;;;;;;5092953;28;19931;-69
2023/07/11 05:54:55;;;;;;;;;;;22.50;64.70;;;;;;5092478;28;19912;-67
2023/07/11 05:57:22;;;;;;;;;;;22.50;65.20;;;;;;5092688;28;19915;-69
2023/07/11 05:59:48;;;;;;;;;;;22.60;66.60;;;;;;5092643;28;19908;-65
2023/07/11 06:02:15;;;;;;;;;;;22.50;66.40;;;;;;5092870;28;20360;-71
2023/07/11 06:04:42;;;;;;;;;;;22.80;66.10;;;;;;5092553;28;19915;-69
2023/07/11 06:07:08;;;;;;;;;;;23.20;66.90;;;;;;5092552;28;19919;-68
2023/07/11 06:09:35;;;;;;;;;;;23.60;65.80;;;;;;5092182;28;20380;-70
2023/07/11 06:12:02;;;;;;;;;;;24.00;66.10;;;;;;5092642;28;19995;-68
2023/07/11 06:14:28;;;;;;;;;;;24.10;65.70;;;;;;5092499;28;19953;-69
2023/07/11 06:16:55;;;;;;;;;;;23.90;66.30;;;;;;5092514;28;20154;-69
2023/07/11 06:19:21;;;;;;;;;;;23.70;65.10;;;;;;5092482;28;20323;-70
2023/07/11 06:21:48;;;;;;;;;;;23.80;64.20;;;;;;5092330;28;19931;-68
2023/07/11 06:24:15;;;;;;;;;;;23.80;64.20;;;;;;5092298;28;19909;-68
2023/07/11 06:26:41;;;;;;;;;;;23.60;64.20;;;;;;5092380;28;19923;-68
2023/07/11 06:29:08;;;;;;;;;;;23.20;65.00;;;;;;5092399;28;19965;-69
2023/07/11 06:31:35;;;;;;;;;;;22.60;65.90;;;;;;5074230;28;19908;-71
2023/07/11 06:34:01;;;;;;;;;;;21.80;66.90;;;;;;5092302;28;20585;-68
2023/07/11 06:36:28;;;;;;;;;;;21.20;67.80;;;;;;5092241;28;19966;-69
2023/07/11 06:38:54;;;;;;;;;;;20.70;68.80;;;;;;5095533;28;19990;-69
2023/07/11 06:41:21;;;;;;;;;;;20.20;70.60;;;;;;5095799;28;19908;-69
2023/07/11 06:43:48;;;;;;;;;;;19.80;72.10;;;;;;5095933;28;19908;-68
2023/07/11 06:46:14;;;;;;;;;;;19.50;74.00;;;;;;5095528;28;19920;-66
2023/07/11 06:48:41;;;;;;;;;;;19.00;74.60;;;;;;5095650;28;19908;-68
2023/07/11 06:51:09;;;;;;;;;;;18.70;75.30;;;;;;5095560;28;19912;-68
2023/07/11 06:53:36;;;;;;;;;;;18.40;76.80;;;;;;5095366;28;20530;-69
2023/07/11 06:56:03;;;;;;;;;;;18.00;78.00;;;;;;5095625;28;19997;-67
2023/07/11 06:58:30;;;;;;;;;;;17.80;79.20;;;;;;5095633;28;20345;-66
2023/07/11 07:01:01;;;;;;;;;;;17.60;80.20;;;;;;5095566;28;20292;-67
2023/07/11 07:03:28;;;;;;;;;;;17.30;81.40;;;;;;5095400;28;20379;-68
2023/07/11 07:05:56;;;;;;;;;;;17.10;82.40;;;;;;5095933;28;20265;-69
2023/07/11 07:08:24;;;;;;;;;;;16.90;83.10;;;;;;5095441;28;20277;-68
2023/07/11 07:10:50;;;;;;;;;;;16.70;83.70;;;;;;5095090;28;19930;-69
2023/07/11 07:13:18;;;;;;;;;;;16.40;84.90;;;;;;5095362;28;19908;-70
2023/07/11 07:15:56;;;;;;;;;;;16.20;85.80;;;;;;5094972;28;19916;-70
2023/07/11 07:18:23;;;;;;;;;;;16.00;86.70;;;;;;5094775;28;20268;-68
2023/07/11 07:20:50;;;;;;;;;;;15.90;87.60;;;;;;5094806;28;19990;-68
2023/07/11 07:23:18;;;;;;;;;;;15.70;88.00;;;;;;5095135;28;19961;-68
2023/07/11 07:25:51;;;;;;;;;;;15.60;88.00;;;;;;5095043;28;19991;-69
2023/07/11 07:28:18;;;;;;;;;;;15.50;88.80;;;;;;5094878;28;19915;-68
2023/07/11 07:30:45;;;;;;;;;;;15.40;89.60;;;;;;5094518;28;19961;-68
2023/07/11 07:33:12;;;;;;;;;;;15.30;90.10;;;;;;5094825;28;19908;-67
2023/07/11 07:35:39;;;;;;;;;;;15.20;90.30;;;;;;5094821;28;19908;-69
2023/07/11 07:38:06;;;;;;;;;;;15.10;90.40;;;;;;5094794;28;19908;-70
2023/07/11 07:40:33;;;;;;;;;;;14.90;90.70;;;;;;5094576;28;19909;-67
2023/07/11 07:42:59;;;;;;;;;;;14.90;90.80;;;;;;5094593;28;19931;-67
2023/07/11 07:45:26;;;;;;;;;;;14.80;90.90;;;;;;5094501;28;19928;-69
2023/07/11 07:47:53;;;;;;;;;;;14.80;91.10;;;;;;5094365;28;20433;-67
2023/07/11 07:50:19;;;;;;;;;;;14.80;91.40;;;;;;5093742;28;19962;-65
2023/07/11 07:52:46;;;;;;;;;;;14.70;91.40;;;;;;5094430;28;20361;-65
2023/07/11 07:55:13;;;;;;;;;;;14.60;91.40;;;;;;5094258;28;20012;-67
2023/07/11 07:57:40;;;;;;;;;;;14.60;91.50;;;;;;5094329;28;20383;-67
2023/07/11 08:00:07;;;;;;;;;;;14.50;91.60;;;;;;5094387;28;19909;-68
2023/07/11 08:02:35;;;;;;;;;;;14.50;91.90;;;;;;5094406;28;19912;-69
2023/07/11 08:05:02;;;;;;;;;;;14.40;92.10;;;;;;5094365;28;19908;-67
2023/07/11 08:07:29;;;;;;;;;;;14.30;92.40;;;;;;5094001;28;19916;-67
2023/07/11 08:09:55;;;;;;;;;;;14.30;92.50;;;;;;5093948;28;20013;-67
2023/07/11 08:12:22;;;;;;;;;;;14.20;92.90;;;;;;5093862;28;19962;-68
2023/07/11 08:14:49;;;;;;;;;;;14.20;93.00;;;;;;5094005;28;19915;-69
2023/07/11 08:17:15;;;;;;;;;;;14.10;93.20;;;;;;5094049;28;20359;-69
2023/07/11 08:19:42;;;;;;;;;;;14.10;93.30;;;;;;5093826;28;20345;-68
2023/07/11 08:22:09;;;;;;;;;;;14.00;93.60;;;;;;5093601;28;19908;-69
2023/07/11 08:24:36;;;;;;;;;;;13.90;93.80;;;;;;5093969;28;19919;-69
2023/07/11 08:27:03;;;;;;;;;;;13.90;93.90;;;;;;5093666;28;20323;-66
2023/07/11 08:29:29;;;;;;;;;;;13.90;94.10;;;;;;5093545;28;20341;-67
2023/07/11 08:31:56;;;;;;;;;;;13.80;94.40;;;;;;5093591;28;19912;-69
2023/07/11 08:34:23;;;;;;;;;;;13.80;94.50;;;;;;5093450;28;19961;-69
2023/07/11 08:36:50;;;;;;;;;;;13.70;94.60;;;;;;5093758;28;19908;-68
2023/07/11 08:39:17;;;;;;;;;;;13.70;94.70;;;;;;5093697;28;19908;-67
2023/07/11 08:41:45;;;;;;;;;;;13.60;94.80;;;;;;5075084;28;19908;-68
2023/07/11 08:44:31;;;;;;;;;;;13.60;95.00;;;;;;5093214;28;20276;-71
2023/07/11 08:47:07;;;;;;;;;;;13.60;95.30;;;;;;5061636;28;19973;-69
2023/07/11 08:49:57;;;;;;;;;;;13.60;95.30;;;;;;5092533;28;20276;-69
2023/07/11 08:52:24;;;;;;;;;;;13.50;95.30;;;;;;5093174;28;20280;-68
2023/07/11 08:54:55;;;;;;;;;;;13.50;95.40;;;;;;5093391;28;19934;-69
2023/07/11 08:57:25;;;;;;;;;;;13.40;95.40;;;;;;5093126;28;19951;-69
2023/07/11 09:00:06;;;;;;;;;;;13.30;95.80;;;;;;5092915;28;19969;-68
2023/07/11 09:02:38;;;;;;;;;;;13.30;95.90;;;;;;5093104;28;20007;-68
2023/07/11 09:05:08;;;;;;;;;;;13.30;96.20;;;;;;5093304;28;20327;-69
2023/07/11 09:07:44;;;;;;;;;;;13.20;96.40;;;;;;5093147;28;19923;-67
2023/07/11 09:10:24;;;;;;;;;;;13.20;96.70;;;;;;5093062;28;20014;-66
2023/07/11 09:12:57;;;;;;;;;;;13.20;96.80;;;;;;5092863;28;19908;-68
2023/07/11 09:15:33;;;;;;;;;;;13.20;96.90;;;;;;5074840;28;20430;-70
2023/07/11 09:18:17;;;;;;;;;;;13.10;97.10;;;;;;5092958;28;20002;-68
2023/07/11 09:21:16;;;;;;;;;;;13.10;97.50;;;;;;5093049;28;19991;-70
2023/07/11 09:23:43;;;;;;;;;;;13.00;97.60;;;;;;5058752;28;19908;-67
2023/07/11 09:26:13;;;;;;;;;;;13.00;97.00;;;;;;5092743;28;19916;-68
2023/07/11 09:28:40;;;;;;;;;;;13.00;96.50;;;;;;5075038;28;19967;-68
2023/07/11 09:31:12;;;;;;;;;;;13.10;96.20;;;;;;5092824;28;19908;-67
2023/07/11 09:33:44;;;;;;;;;;;13.10;96.20;;;;;;5074935;28;19969;-68
2023/07/11 09:36:22;;;;;;;;;;;13.20;96.50;;;;;;5093198;28;20402;-65
2023/07/11 09:38:52;;;;;;;;;;;13.10;96.70;;;;;;5092707;28;20271;-65
2023/07/11 09:41:22;;;;;;;;;;;13.10;96.90;;;;;;5092891;28;19953;-69
2023/07/11 09:43:48;;;;;;;;;;;13.00;97.00;;;;;;5092887;28;19954;-67
2023/07/11 09:46:25;;;;;;;;;;;13.10;97.20;;;;;;5092240;28;19981;-64
2023/07/11 09:48:54;;;;;;;;;;;13.00;97.60;;;;;;5092789;28;19965;-65
2023/07/11 09:51:25;;;;;;;;;;;12.90;97.70;;;;;;5092683;28;19915;-68
2023/07/11 09:53:55;;;;;;;;;;;12.90;97.90;;;;;;5092594;28;19916;-64
2023/07/11 09:56:24;;;;;;;;;;;12.90;98.10;;;;;;5092512;28;20300;-68
2023/07/11 09:58:52;;;;;;;;;;;12.80;98.30;;;;;;5092482;28;19994;-68
2023/07/11 10:01:23;;;;;;;;;;;12.90;98.50;;;;;;5092313;28;19908;-65
2023/07/11 10:03:52;;;;;;;;;;;12.80;98.60;;;;;;5092448;28;20030;-66
2023/07/11 10:06:45;;;;;;;;;;;12.70;98.80;;;;;;5092660;28;19939;-66
2023/07/11 10:09:18;;;;;;;;;;;12.60;98.90;;;;;;5089588;28;19998;-71
2023/07/11 10:12:07;;;;;;;;;;;12.60;99.10;;;;;;5092401;28;19908;-68
2023/07/11 10:14:35;;;;;;;;;;;12.60;99.20;;;;;;5088365;28;19912;-68
2023/07/11 10:17:13;;;;;;;;;;;12.50;99.20;;;;;;5096532;28;19915;-69
2023/07/11 10:19:41;;;;;;;;;;;12.50;99.40;;;;;;5096373;28;19908;-70
2023/07/11 10:22:15;;;;;;;;;;;12.50;99.60;;;;;;5096441;28;19912;-69
2023/07/11 10:24:41;;;;;;;;;;;12.40;99.60;;;;;;5096339;28;19915;-66
2023/07/11 10:27:14;;;;;;;;;;;12.50;99.90;;;;;;5096547;28;20361;-67
2023/07/11 10:29:47;;;;;;;;;;;12.40;99.70;;;;;;5096140;28;19969;-67
2023/07/11 10:32:34;;;;;;;;;;;12.40;99.90;;;;;;5096100;28;19908;-68
2023/07/11 10:35:03;;;;;;;;;;;12.40;99.90;;;;;;5095833;28;20307;-67
2023/07/11 10:37:35;;;;;;;;;;;12.30;99.90;;;;;;5095891;28;20356;-67
2023/07/11 10:40:03;;;;;;;;;;;12.20;99.90;;;;;;5095940;28;19961;-66
2023/07/11 10:42:38;;;;;;;;;;;12.20;99.90;;;;;;5095889;28;19958;-66
2023/07/11 10:45:07;;;;;;;;;;;12.20;99.90;;;;;;5095776;28;19920;-66
2023/07/11 10:47:37;;;;;;;;;;;12.20;99.90;;;;;;5095831;28;19916;-64
2023/07/11 10:50:08;;;;;;;;;;;12.10;99.90;;;;;;5095618;28;19915;-68
2023/07/11 10:52:37;;;;;;;;;;;12.20;99.90;;;;;;5095806;28;19915;-67
2023/07/11 10:55:30;;;;;;;;;;;12.10;99.90;;;;;;5095710;28;20003;-67
2023/07/11 10:57:57;;;;;;;;;;;12.00;99.90;;;;;;5092669;28;19908;-64
2023/07/11 11:00:30;;;;;;;;;;;12.00;99.90;;;;;;5095593;28;19908;-65
2023/07/11 11:03:03;;;;;;;;;;;11.90;99.90;;;;;;5095688;28;20387;-64
2023/07/11 11:05:46;;;;;;;;;;;11.90;99.90;;;;;;5095421;28;19961;-64
2023/07/11 11:08:41;;;;;;;;;;;11.90;99.90;;;;;;5095466;28;19916;-67
2023/07/11 11:11:17;;;;;;;;;;;11.80;99.90;;;;;;5082014;28;20010;-69
2023/07/11 11:13:50;;;;;;;;;;;11.90;99.90;;;;;;5095430;28;19908;-65
2023/07/11 11:16:22;;;;;;;;;;;11.80;99.90;;;;;;5095272;28;20395;-65
2023/07/11 11:19:04;;;;;;;;;;;11.80;99.90;;;;;;5095331;28;20007;-67
2023/07/11 11:21:48;;;;;;;;;;;11.70;99.90;;;;;;5095190;28;19983;-64
2023/07/11 11:24:33;;;;;;;;;;;11.70;99.90;;;;;;5094042;28;19908;-65
2023/07/11 11:27:35;;;;;;;;;;;11.70;99.90;;;;;;5095051;28;19931;-65
2023/07/11 11:30:09;;;;;;;;;;;11.70;99.90;;;;;;5032730;28;20416;-64
2023/07/11 11:32:52;;;;;;;;;;;11.60;99.90;;;;;;5086039;28;19912;-66
2023/07/11 11:35:25;;;;;;;;;;;11.60;99.90;;;;;;5095310;28;19944;-65
2023/07/11 11:38:09;;;;;;;;;;;11.50;99.90;;;;;;5095047;28;19915;-66
2023/07/11 11:40:41;;;;;;;;;;;11.50;99.90;;;;;;5094702;28;19914;-67
2023/07/11 11:43:12;;;;;;;;;;;11.50;99.90;;;;;;5094704;28;20365;-65
2023/07/11 11:45:39;;;;;;;;;;;11.40;99.90;;;;;;5076149;28;19924;-64
2023/07/11 11:48:07;;;;;;;;;;;11.40;99.90;;;;;;5094536;28;19923;-64
2023/07/11 11:50:35;;;;;;;;;;;11.40;99.90;;;;;;5094332;28;20003;-64
2023/07/11 11:53:22;;;;;;;;;;;11.50;99.90;;;;;;5094510;28;19916;-67
2023/07/11 11:56:18;;;;;;;;;;;11.30;99.90;;;;;;5094543;28;19915;-64
2023/07/11 11:58:53;;;;;;;;;;;11.30;99.90;;;;;;5081116;28;19912;-66
2023/07/11 12:01:31;;;;;;;;;;;11.30;99.90;;;;;;5094490;28;19967;-66
2023/07/11 12:03:58;;;;;;;;;;;11.30;99.90;;;;;;5094366;28;19990;-68
2023/07/11 12:06:43;;;;;;;;;;;11.30;99.90;;;;;;5094193;28;20011;-64
2023/07/11 12:09:19;;;;;;;;;;;11.30;99.90;;;;;;5093996;28;20292;-67
2023/07/11 12:12:02;;;;;;;;;;;11.10;99.90;;;;;;5094209;28;19935;-69
2023/07/11 12:14:34;;;;;;;;;;;11.20;99.90;;;;;;5094178;28;19914;-67
2023/07/11 12:17:00;;;;;;;;;;;11.10;99.90;;;;;;5094088;28;20046;-67
2023/07/11 12:19:29;;;;;;;;;;;11.10;99.90;;;;;;5093920;28;19915;-68
2023/07/11 12:22:00;;;;;;;;;;;11.10;99.90;;;;;;5093774;28;19908;-69
2023/07/11 12:24:32;;;;;;;;;;;11.10;99.90;;;;;;5093967;28;20346;-66
2023/07/11 12:27:19;;;;;;;;;;;11.00;99.90;;;;;;5093779;28;19916;-67
2023/07/11 12:29:53;;;;;;;;;;;11.00;99.90;;;;;;5082992;28;19977;-67
2023/07/11 12:32:31;;;;;;;;;;;11.00;99.90;;;;;;5093852;28;19908;-68
2023/07/11 12:35:08;;;;;;;;;;;11.00;99.90;;;;;;5093290;28;19908;-67
2023/07/11 12:37:41;;;;;;;;;;;10.90;99.90;;;;;;5093731;28;19943;-68
2023/07/11 12:40:19;;;;;;;;;;;10.80;99.90;;;;;;5093544;28;20006;-69
2023/07/11 12:42:51;;;;;;;;;;;10.80;99.90;;;;;;5093502;28;19986;-69
2023/07/11 12:45:20;;;;;;;;;;;10.80;99.90;;;;;;5093120;28;19963;-70
2023/07/11 12:47:48;;;;;;;;;;;10.80;99.90;;;;;;5093340;28;19923;-66
2023/07/11 12:50:25;;;;;;;;;;;10.80;99.90;;;;;;5093417;28;19918;-67
2023/07/11 12:53:02;;;;;;;;;;;10.80;99.90;;;;;;5075299;28;20254;-68
2023/07/11 12:55:30;;;;;;;;;;;10.80;99.90;;;;;;5093304;28;19911;-67
2023/07/11 12:57:57;;;;;;;;;;;10.80;99.90;;;;;;5093200;28;19912;-68
2023/07/11 13:00:27;;;;;;;;;;;10.70;99.90;;;;;;5075303;28;20381;-68
2023/07/11 13:02:55;;;;;;;;;;;10.70;99.90;;;;;;5093386;28;20007;-64
2023/07/11 13:05:23;;;;;;;;;;;10.70;99.90;;;;;;5093192;28;19908;-65
2023/07/11 13:07:50;;;;;;;;;;;10.70;99.90;;;;;;5074936;28;19916;-64
2023/07/11 13:10:21;;;;;;;;;;;10.70;99.90;;;;;;5092942;28;19919;-64
2023/07/11 13:12:48;;;;;;;;;;;10.60;99.90;;;;;;5093079;28;19915;-64
2023/07/11 13:15:16;;;;;;;;;;;10.60;99.90;;;;;;5092976;28;19912;-67
2023/07/11 13:17:44;;;;;;;;;;;10.60;99.90;;;;;;5092926;28;19909;-64
2023/07/11 13:20:16;;;;;;;;;;;10.60;99.90;;;;;;5092793;28;20345;-64
2023/07/11 13:22:43;;;;;;;;;;;10.60;99.90;;;;;;5092978;28;19909;-65
2023/07/11 13:25:17;;;;;;;;;;;10.60;99.90;;;;;;5093552;28;19953;-64
2023/07/11 13:27:47;;;;;;;;;;;10.50;99.90;;;;;;5093052;28;19916;-65
2023/07/11 13:30:36;;;;;;;;;;;10.50;99.90;;;;;;5092777;28;19958;-67
2023/07/11 13:33:13;;;;;;;;;;;10.50;99.90;;;;;;5084959;28;20289;-67
2023/07/11 13:35:49;;;;;;;;;;;10.50;99.90;;;;;;5092752;28;19916;-66
2023/07/11 13:38:16;;;;;;;;;;;10.40;99.90;;;;;;5092867;28;19912;-64
2023/07/11 13:40:42;;;;;;;;;;;10.50;99.90;;;;;;5093108;28;20379;-67
2023/07/11 13:43:16;;;;;;;;;;;10.40;99.90;;;;;;5093004;28;20353;-66
2023/07/11 13:45:44;;;;;;;;;;;10.30;99.90;;;;;;5092532;28;19920;-66
2023/07/11 13:48:14;;;;;;;;;;;10.30;99.90;;;;;;5095133;28;19916;-65
2023/07/11 13:50:41;;;;;;;;;;;10.30;99.90;;;;;;5096725;28;19908;-66
2023/07/11 13:53:15;;;;;;;;;;;10.20;99.90;;;;;;5096914;28;19997;-63
2023/07/11 13:55:50;;;;;;;;;;;10.30;99.90;;;;;;5097042;28;19915;-63
2023/07/11 13:58:20;;;;;;;;;;;10.20;99.90;;;;;;5096547;28;19908;-65
2023/07/11 14:00:49;;;;;;;;;;;10.20;99.90;;;;;;5096630;28;19908;-64
2023/07/11 14:03:21;;;;;;;;;;;10.20;99.90;;;;;;5096538;28;20417;-65
2023/07/11 14:05:49;;;;;;;;;;;10.10;99.90;;;;;;5096525;28;19999;-65
2023/07/11 14:08:17;;;;;;;;;;;10.10;99.90;;;;;;5096479;28;20287;-70
2023/07/11 14:10:45;;;;;;;;;;;10.10;99.90;;;;;;5096356;28;19916;-70
2023/07/11 14:13:19;;;;;;;;;;;10.00;99.90;;;;;;5096308;28;19947;-68
2023/07/11 14:15:46;;;;;;;;;;;10.10;99.90;;;;;;5096345;28;19915;-68
2023/07/11 14:18:13;;;;;;;;;;;10.00;99.90;;;;;;5096444;28;19909;-68
2023/07/11 14:20:40;;;;;;;;;;;10.00;99.90;;;;;;5096185;28;19915;-67
2023/07/11 14:23:25;;;;;;;;;;;10.00;99.90;;;;;;5096016;28;19931;-65
2023/07/11 14:25:52;;;;;;;;;;;10.00;99.90;;;;;;5096486;28;20379;-65
2023/07/11 14:28:19;;;;;;;;;;;10.00;99.90;;;;;;5096248;28;20384;-66
2023/07/11 14:30:46;;;;;;;;;;;10.00;99.90;;;;;;5095917;28;19912;-68